createdAt,value
2022-10-05T00:03:55.788Z,94.50
2022-10-05T00:08:06.842Z,94.30
2022-10-05T00:12:17.724Z,94.20
2022-10-05T00:16:21.987Z,94.30
2022-10-05T00:20:27.937Z,94.30
2022-10-05T00:24:31.204Z,94.40
2022-10-05T00:28:34.295Z,94.20
2022-10-05T00:32:37.185Z,94.30
2022-10-05T00:36:41.839Z,94.30
2022-10-05T00:40:55.496Z,94.30
2022-10-05T00:45:07.933Z,94.10
2022-10-05T00:49:25.387Z,94.00
2022-10-05T00:53:39.271Z,94.00
2022-10-05T00:57:55.426Z,94.00
2022-10-05T01:02:03.736Z,94.10
2022-10-05T01:06:16.230Z,94.10
2022-10-05T01:10:33.838Z,94.20
2022-10-05T01:14:43.190Z,94.30
2022-10-05T01:18:53.653Z,94.30
2022-10-05T01:23:36.228Z,94.20
2022-10-05T01:27:49.048Z,94.10
2022-10-05T01:32:00.911Z,94.10
2022-10-05T01:36:09.164Z,94.00
2022-10-05T01:40:21.306Z,94.10
2022-10-05T01:44:31.663Z,94.20
2022-10-05T01:48:43.944Z,94.10
2022-10-05T01:52:54.242Z,94.20
2022-10-05T01:57:03.529Z,94.10
2022-10-05T02:01:13.373Z,94.10
2022-10-05T02:05:20.698Z,94.20
2022-10-05T02:09:29.390Z,94.20
2022-10-05T02:13:36.493Z,94.10
2022-10-05T02:17:45.787Z,94.10
2022-10-05T02:21:54.582Z,94.10
2022-10-05T02:25:59.567Z,94.10
2022-10-05T02:30:05.028Z,94.10
2022-10-05T02:34:27.548Z,94.10
2022-10-05T02:38:48.959Z,94.20
2022-10-05T02:43:01.308Z,94.10
2022-10-05T02:47:12.181Z,94.30
2022-10-05T02:51:23.642Z,94.30
2022-10-05T02:55:31.877Z,94.40
2022-10-05T02:59:39.961Z,94.30
2022-10-05T03:03:49.812Z,94.30
2022-10-05T03:08:02.124Z,94.40
2022-10-05T03:12:18.426Z,94.50
2022-10-05T03:16:43.683Z,94.50
2022-10-05T03:20:53.725Z,94.50
2022-10-05T03:25:16.216Z,94.40
2022-10-05T03:29:30.340Z,94.50
2022-10-05T03:33:43.121Z,94.50
2022-10-05T03:37:54.424Z,94.50
2022-10-05T03:42:06.076Z,94.50
2022-10-05T03:46:15.226Z,94.60
2022-10-05T03:50:31.665Z,94.60
2022-10-05T03:54:39.554Z,94.70
2022-10-05T03:58:50.468Z,94.70
2022-10-05T04:02:58.171Z,94.80
2022-10-05T04:07:02.906Z,94.80
2022-10-05T04:11:11.104Z,94.80
2022-10-05T04:15:22.654Z,94.90
2022-10-05T04:19:32.476Z,94.90
2022-10-05T04:23:45.430Z,95.00
2022-10-05T04:27:55.724Z,95.10
2022-10-05T04:32:09.908Z,95.20
2022-10-05T04:36:23.098Z,95.20
2022-10-05T04:40:42.429Z,95.30
2022-10-05T04:45:15.462Z,95.30
2022-10-05T04:49:32.644Z,95.50
2022-10-05T04:53:42.844Z,95.70
2022-10-05T04:57:54.192Z,95.80
2022-10-05T05:02:06.715Z,95.80
2022-10-05T05:06:25.394Z,95.90
2022-10-05T05:11:01.381Z,95.90
2022-10-05T05:15:19.601Z,96.00
2022-10-05T05:19:42.192Z,96.10
2022-10-05T05:23:52.906Z,96.20
2022-10-05T05:27:59.582Z,96.20
2022-10-05T05:32:13.930Z,96.30
2022-10-05T05:36:40.855Z,96.40
2022-10-05T05:40:51.519Z,96.40
2022-10-05T05:44:58.160Z,96.40
2022-10-05T05:49:06.619Z,96.40
2022-10-05T05:53:18.051Z,96.50
2022-10-05T05:57:28.703Z,96.50
2022-10-05T06:01:39.550Z,96.40
2022-10-05T06:05:50.739Z,96.50
2022-10-05T06:09:59.676Z,96.60
2022-10-05T06:14:18.547Z,96.60
2022-10-05T06:18:23.917Z,96.50
2022-10-05T06:22:35.597Z,96.50
2022-10-05T06:27:03.777Z,96.50
2022-10-05T06:31:30.506Z,96.50
2022-10-05T06:35:52.117Z,96.30
2022-10-05T06:40:11.584Z,96.20
2022-10-05T06:44:18.225Z,96.20
2022-10-05T06:49:09.854Z,96.10
2022-10-05T06:53:49.053Z,96.10
2022-10-05T06:58:20.851Z,96.20
2022-10-05T07:02:30.307Z,96.20
2022-10-05T07:06:38.852Z,96.20
2022-10-05T07:10:57.723Z,96.10
2022-10-05T07:15:20.254Z,96.00
2022-10-05T07:19:33.462Z,96.00
2022-10-05T07:23:51.884Z,95.90
2022-10-05T07:28:01.086Z,95.60
2022-10-05T07:32:15.309Z,95.40
2022-10-05T07:36:44.460Z,95.30
2022-10-05T07:40:53.539Z,95.10
2022-10-05T07:45:01.878Z,94.80
2022-10-05T07:49:16.229Z,94.70
2022-10-05T07:53:23.302Z,94.50
2022-10-05T07:57:35.853Z,94.30
2022-10-05T08:01:44.627Z,94.20
2022-10-05T08:05:48.500Z,94.00
2022-10-05T08:09:56.418Z,93.60
2022-10-05T08:14:06.523Z,93.60
2022-10-05T08:18:18.419Z,94.00
2022-10-05T08:22:27.294Z,93.60
2022-10-05T08:26:39.442Z,93.60
2022-10-05T08:30:56.775Z,93.30
2022-10-05T08:35:05.305Z,93.50
2022-10-05T08:39:13.945Z,93.20
2022-10-05T08:43:35.281Z,93.10
2022-10-05T08:48:14.005Z,92.90
2022-10-05T08:52:26.181Z,92.90
2022-10-05T08:56:41.874Z,92.70
2022-10-05T09:00:55.823Z,92.50
2022-10-05T09:05:18.661Z,92.40
2022-10-05T09:09:44.737Z,92.50
2022-10-05T09:14:07.815Z,92.20
2022-10-05T09:18:43.390Z,92.20
2022-10-05T09:22:59.372Z,91.90
2022-10-05T09:27:10.993Z,91.80
2022-10-05T09:31:42.022Z,91.80
2022-10-05T09:36:24.406Z,91.20
2022-10-05T09:40:58.336Z,91.10
2022-10-05T09:45:31.962Z,91.00
2022-10-05T09:50:06.926Z,90.90
2022-10-05T09:54:48.771Z,90.80
2022-10-05T09:59:35.132Z,90.80
2022-10-05T10:04:24.645Z,91.10
2022-10-05T10:08:40.730Z,90.90
2022-10-05T10:13:01.498Z,91.10
2022-10-05T10:17:19.374Z,91.30
2022-10-05T10:21:44.339Z,90.90
2022-10-05T10:26:35.480Z,90.70
2022-10-05T10:30:59.391Z,90.80
2022-10-05T10:35:21.144Z,90.90
2022-10-05T10:39:34.232Z,90.80
2022-10-05T10:44:03.173Z,90.50
2022-10-05T10:48:12.105Z,90.30
2022-10-05T10:52:34.415Z,90.20
2022-10-05T10:56:51.871Z,90.20
2022-10-05T11:01:03.503Z,89.70
2022-10-05T11:05:30.704Z,89.10
2022-10-05T11:09:53.717Z,88.90
2022-10-05T11:14:21.975Z,88.20
2022-10-05T11:18:36.583Z,87.80
2022-10-05T11:22:53.904Z,87.00
2022-10-05T11:27:17.201Z,86.90
2022-10-05T11:31:48.659Z,86.20
2022-10-05T11:36:05.511Z,86.10
2022-10-05T11:40:37.697Z,85.40
2022-10-05T11:45:15.063Z,85.30
2022-10-05T11:49:28.802Z,84.90
2022-10-05T11:53:37.916Z,84.70
2022-10-05T11:57:48.948Z,84.60
2022-10-05T12:01:59.863Z,83.10
2022-10-05T12:06:15.529Z,82.60
2022-10-05T12:10:31.152Z,81.50
2022-10-05T12:14:45.449Z,81.40
2022-10-05T12:18:57.898Z,80.70
2022-10-05T12:23:07.156Z,82.30
2022-10-05T12:27:16.533Z,81.30
2022-10-05T12:31:30.157Z,81.20
2022-10-05T12:35:48.350Z,80.60
2022-10-05T12:39:57.599Z,80.20
2022-10-05T12:44:14.960Z,79.80
2022-10-05T12:48:49.107Z,80.20
2022-10-05T12:53:03.203Z,80.20
2022-10-05T12:57:13.631Z,80.40
2022-10-05T13:01:29.533Z,79.90
2022-10-05T13:05:42.297Z,80.10
2022-10-05T13:09:53.714Z,78.20
2022-10-05T13:14:09.153Z,78.10
2022-10-05T13:18:22.983Z,78.20
2022-10-05T13:22:32.737Z,78.00
2022-10-05T13:26:41.880Z,77.10
2022-10-05T13:30:54.098Z,77.20
2022-10-05T13:35:09.170Z,77.50
2022-10-05T13:39:28.089Z,76.60
2022-10-05T13:43:41.312Z,76.60
2022-10-05T13:48:00.328Z,75.20
2022-10-05T13:52:17.568Z,75.20
2022-10-05T13:56:23.261Z,74.50
2022-10-05T14:00:28.380Z,74.80
2022-10-05T14:04:45.145Z,74.30
2022-10-05T14:08:51.827Z,73.80
2022-10-05T14:12:55.481Z,73.60
2022-10-05T14:21:23.091Z,73.10
2022-10-05T14:25:26.203Z,71.70
2022-10-05T14:29:36.824Z,71.50
2022-10-05T14:33:41.317Z,70.50
2022-10-05T14:37:50.020Z,69.70
2022-10-05T14:41:52.864Z,69.30
2022-10-05T14:45:57.760Z,67.40
2022-10-05T14:50:17.814Z,66.90
2022-10-05T14:54:30.930Z,65.70
2022-10-05T14:59:13.572Z,63.80
2022-10-05T15:03:35.421Z,62.30
2022-10-05T15:07:43.923Z,63.20
2022-10-05T15:11:52.089Z,63.20
2022-10-05T15:15:57.440Z,63.90
2022-10-05T15:20:05.152Z,64.50
2022-10-05T15:24:17.546Z,63.00
2022-10-05T15:28:31.742Z,61.40
2022-10-05T15:32:43.984Z,59.70
2022-10-05T15:36:53.759Z,59.70
2022-10-05T15:41:10.897Z,60.20
2022-10-05T15:45:20.267Z,59.70
2022-10-05T15:49:29.999Z,59.40
2022-10-05T15:53:40.640Z,59.30
2022-10-05T15:57:51.793Z,58.80
2022-10-05T16:02:00.763Z,58.60
2022-10-05T16:06:27.383Z,59.30
2022-10-05T16:10:37.131Z,59.90
2022-10-05T16:15:01.302Z,60.80
2022-10-05T16:19:12.586Z,60.40
2022-10-05T16:23:23.911Z,60.60
2022-10-05T16:27:40.979Z,61.20
2022-10-05T16:31:56.620Z,61.90
2022-10-05T16:36:08.036Z,61.80
2022-10-05T16:40:19.159Z,62.10
2022-10-05T16:44:33.851Z,62.80
2022-10-05T16:48:47.255Z,63.80
2022-10-05T16:52:57.921Z,64.70
2022-10-05T16:57:07.560Z,65.80
2022-10-05T17:01:21.594Z,66.60
2022-10-05T17:05:55.795Z,67.70
2022-10-05T17:10:12.915Z,68.80
2022-10-05T17:14:26.947Z,70.20
2022-10-05T17:19:00.610Z,71.50
2022-10-05T17:23:23.786Z,72.50
2022-10-05T17:27:35.181Z,73.30
2022-10-05T17:32:00.867Z,74.20
2022-10-05T17:36:18.912Z,75.60
2022-10-05T17:40:39.480Z,76.60
2022-10-05T17:44:42.464Z,77.70
2022-10-05T17:49:13.216Z,79.40
2022-10-05T17:53:40.317Z,80.20
2022-10-05T17:57:44.770Z,80.70
2022-10-05T18:02:15.828Z,81.60
2022-10-05T18:06:47.558Z,82.30
2022-10-05T18:11:36.844Z,83.40
2022-10-05T18:15:48.344Z,84.00
2022-10-05T18:20:13.187Z,84.60
2022-10-05T18:24:53.038Z,85.60
2022-10-05T18:29:13.898Z,86.70
2022-10-05T18:33:49.251Z,87.40
2022-10-05T18:38:02.335Z,87.70
2022-10-05T18:42:15.301Z,88.20
2022-10-05T18:46:27.238Z,88.20
2022-10-05T18:50:42.275Z,88.40
2022-10-05T18:54:55.764Z,89.10
2022-10-05T18:59:18.190Z,88.60
2022-10-05T19:03:28.657Z,89.00
2022-10-05T19:07:44.667Z,89.30
2022-10-05T19:11:55.629Z,89.80
2022-10-05T19:16:09.555Z,89.90
2022-10-05T19:20:21.846Z,90.10
2022-10-05T19:24:51.586Z,90.40
2022-10-05T19:29:07.028Z,90.50
2022-10-05T19:33:21.880Z,90.70
2022-10-05T19:37:32.845Z,90.80
2022-10-05T19:41:54.071Z,91.10
2022-10-05T19:46:05.467Z,91.30
2022-10-05T19:50:22.047Z,91.60
2022-10-05T19:54:29.848Z,91.70
2022-10-05T19:58:40.766Z,91.80
2022-10-05T20:02:43.910Z,92.00
2022-10-05T20:06:47.894Z,92.10
2022-10-05T20:11:06.204Z,91.90
2022-10-05T20:15:36.942Z,91.80
2022-10-05T20:19:57.896Z,91.80
2022-10-05T20:24:11.990Z,92.00
2022-10-05T20:28:31.679Z,92.10
2022-10-05T20:32:36.157Z,92.10
2022-10-05T20:36:39.888Z,92.30
2022-10-05T20:40:42.848Z,92.30
2022-10-05T20:44:46.245Z,92.40
2022-10-05T20:48:53.745Z,92.50
2022-10-05T20:52:57.598Z,92.60
2022-10-05T20:57:00.434Z,92.60
2022-10-05T21:01:19.578Z,92.70
2022-10-05T21:05:24.006Z,92.50
2022-10-05T21:09:26.858Z,92.30
2022-10-05T21:13:29.738Z,92.20
2022-10-05T21:17:32.862Z,92.10
2022-10-05T21:21:37.631Z,91.90
2022-10-05T21:25:40.439Z,91.70
2022-10-05T21:29:44.077Z,91.40
2022-10-05T21:33:46.952Z,91.10
2022-10-05T21:37:51.101Z,91.00
2022-10-05T21:41:53.949Z,90.80
2022-10-05T21:45:56.993Z,90.70
2022-10-05T21:50:00.347Z,90.60
2022-10-05T21:54:10.130Z,90.40
2022-10-05T21:58:14.105Z,90.20
2022-10-05T22:02:16.988Z,90.10
2022-10-05T22:06:19.864Z,90.00
2022-10-05T22:10:24.929Z,89.80
2022-10-05T22:14:28.226Z,89.70
2022-10-05T22:18:31.694Z,89.60
2022-10-05T22:22:35.222Z,89.70
2022-10-05T22:26:40.507Z,89.50
2022-10-05T22:30:45.209Z,89.50
2022-10-05T22:34:48.061Z,89.20
2022-10-05T22:38:51.263Z,89.10
2022-10-05T22:42:56.082Z,88.90
2022-10-05T22:47:00.500Z,88.90
2022-10-05T22:51:06.893Z,88.90
2022-10-05T22:55:10.364Z,89.00
2022-10-05T22:59:14.738Z,89.20
2022-10-05T23:03:17.597Z,89.30
2022-10-05T23:07:21.091Z,89.30
2022-10-05T23:11:26.211Z,89.20
2022-10-05T23:15:30.478Z,89.50
2022-10-05T23:19:33.342Z,89.30
2022-10-05T23:23:37.221Z,89.60
2022-10-05T23:27:41.142Z,89.70
2022-10-05T23:31:45.265Z,89.90
2022-10-05T23:35:48.507Z,90.00
2022-10-05T23:39:53.552Z,90.90
2022-10-05T23:43:58.355Z,92.50
2022-10-05T23:48:05.917Z,93.50
2022-10-05T23:52:13.889Z,94.40
2022-10-05T23:56:16.883Z,95.00
